Time;durP1;ratioP1;P1;durP2;ratioP2;P2;SDS_P1;SDS_P2;PMS_P1;PMS_P2;Temp;Humidity;BMP_temperature;BMP_pressure;BME280_temperature;BME280_humidity;BME280_pressure;Samples;Min_cycle;Max_cycle;Signal;HPM_P1;HPM_P2
2022/03/29 00:00:07;;;;;;;16.95;13.35;;;7.70;1.00;;;;;;4949555;28;20233;-85
2022/03/29 00:03:04;;;;;;;20.15;13.80;;;7.70;1.00;;;;;;4935800;28;20238;-85
2022/03/29 00:05:37;;;;;;;16.48;12.85;;;7.70;1.00;;;;;;4942177;28;20220;-86
2022/03/29 00:08:07;;;;;;;16.17;13.45;;;7.70;1.00;;;;;;4951976;28;20272;-85
2022/03/29 00:10:56;;;;;;;17.17;13.55;;;7.70;1.00;;;;;;4946610;28;20293;-85
2022/03/29 00:13:35;;;;;;;17.33;13.48;;;7.60;1.00;;;;;;4930159;28;20269;-86
2022/03/29 00:16:06;;;;;;;15.88;12.90;;;7.60;1.00;;;;;;4930193;28;20217;-86
2022/03/29 00:21:26;;;;;;;16.90;13.35;;;7.50;1.00;;;;;;4938343;28;20292;-84
2022/03/29 00:23:59;;;;;;;16.38;13.07;;;7.50;1.00;;;;;;4933898;28;20313;-85
2022/03/29 00:26:37;;;;;;;19.67;14.85;;;7.50;1.00;;;;;;4927957;28;20379;-87
2022/03/29 00:29:08;;;;;;;16.02;13.25;;;7.50;1.00;;;;;;4943478;28;20274;-86
2022/03/29 00:31:35;;;;;;;16.75;14.30;;;7.50;1.00;;;;;;4923679;28;20237;-85
2022/03/29 00:34:06;;;;;;;17.20;13.20;;;7.50;1.00;;;;;;4945265;28;20238;-86
2022/03/29 00:36:46;;;;;;;17.75;13.77;;;7.60;1.00;;;;;;4920752;28;20230;-88
2022/03/29 00:39:27;;;;;;;17.52;12.45;;;7.60;1.00;;;;;;4945129;28;20362;-86
2022/03/29 00:42:06;;;;;;;19.75;13.93;;;7.60;1.00;;;;;;4950455;28;20224;-86
2022/03/29 00:44:45;;;;;;;16.58;12.40;;;7.70;1.00;;;;;;4942088;28;20451;-85
2022/03/29 00:47:15;;;;;;;17.08;13.65;;;7.70;1.00;;;;;;4940293;28;20236;-85
2022/03/29 00:49:45;;;;;;;18.83;13.27;;;7.60;1.00;;;;;;4946073;28;20241;-85
2022/03/29 00:52:16;;;;;;;18.55;13.48;;;7.70;1.00;;;;;;4954478;28;20266;-87
2022/03/29 00:54:47;;;;;;;17.90;14.75;;;7.70;1.00;;;;;;4949364;28;20236;-86
2022/03/29 01:00:17;;;;;;;16.10;13.20;;;7.70;1.00;;;;;;4944802;28;20238;-87
2022/03/29 01:02:46;;;;;;;17.52;13.38;;;7.70;1.00;;;;;;4931832;28;20312;-85
2022/03/29 01:05:17;;;;;;;16.90;13.23;;;7.80;1.00;;;;;;4955621;28;20236;-86
2022/03/29 01:07:54;;;;;;;18.92;15.05;;;7.80;1.00;;;;;;4935054;28;20252;-87
2022/03/29 01:10:24;;;;;;;18.83;15.05;;;7.80;1.00;;;;;;5066538;23;20229;-86
2022/03/29 01:12:57;;;;;;;17.48;13.73;;;7.80;1.00;;;;;;4940933;28;20237;-85
2022/03/29 01:15:35;;;;;;;18.77;14.38;;;7.80;1.00;;;;;;4930816;28;20233;-86
2022/03/29 01:18:05;;;;;;;18.25;12.90;;;7.70;1.00;;;;;;4934779;28;20214;-83
2022/03/29 01:20:45;;;;;;;15.77;13.45;;;7.70;1.00;;;;;;4942366;28;20277;-86
2022/03/29 01:23:26;;;;;;;17.60;13.90;;;7.70;1.00;;;;;;4947159;28;20265;-86
2022/03/29 01:25:56;;;;;;;18.10;14.13;;;7.70;1.00;;;;;;4948783;28;20305;-86
2022/03/29 01:28:25;;;;;;;19.13;15.05;;;7.70;1.00;;;;;;4939807;28;20336;-86
2022/03/29 01:30:55;;;;;;;16.92;14.18;;;7.70;1.00;;;;;;4953838;28;20218;-86
2022/03/29 01:33:40;;;;;;;16.05;13.02;;;7.70;1.00;;;;;;4939785;28;20225;-87
2022/03/29 01:36:07;;;;;;;18.15;14.63;;;7.70;1.00;;;;;;4945544;28;20598;-84
2022/03/29 01:38:36;;;;;;;18.35;14.82;;;7.70;1.00;;;;;;4932660;28;20236;-85
2022/03/29 01:41:06;;;;;;;21.63;15.25;;;7.70;1.00;;;;;;4937672;28;20237;-86
2022/03/29 01:43:35;;;;;;;20.17;13.27;;;7.60;1.00;;;;;;4936309;28;20290;-85
2022/03/29 01:46:02;;;;;;;16.40;13.75;;;7.60;1.00;;;;;;4940291;28;20241;-86
2022/03/29 01:48:39;;;;;;;16.85;14.13;;;7.60;1.00;;;;;;4945674;28;20234;-85
2022/03/29 01:51:07;;;;;;;17.67;13.30;;;7.60;1.00;;;;;;4927004;28;20310;-86
2022/03/29 01:53:57;;;;;;;20.00;15.02;;;7.70;1.00;;;;;;4926049;28;20230;-86
2022/03/29 01:56:28;;;;;;;17.98;14.52;;;7.70;1.00;;;;;;4986362;23;20248;-84
2022/03/29 01:58:56;;;;;;;21.83;15.43;;;7.70;1.00;;;;;;4981726;28;20645;-87
2022/03/29 02:01:26;;;;;;;17.65;14.10;;;7.70;1.00;;;;;;4971800;28;20233;-85
2022/03/29 02:03:57;;;;;;;17.33;14.60;;;7.70;1.00;;;;;;4967091;28;20230;-85
2022/03/29 02:06:27;;;;;;;18.35;14.68;;;7.70;1.00;;;;;;4962468;28;20300;-86
2022/03/29 02:08:58;;;;;;;17.80;15.25;;;7.70;1.00;;;;;;4966932;28;20233;-85
2022/03/29 02:11:24;;;;;;;19.05;14.80;;;7.60;1.00;;;;;;4967989;28;21539;-86
2022/03/29 02:13:57;;;;;;;20.08;16.05;;;7.60;1.00;;;;;;4965574;28;20234;-86
2022/03/29 02:16:27;;;;;;;19.05;15.95;;;7.60;1.00;;;;;;4969061;28;20237;-86
2022/03/29 02:18:55;;;;;;;20.65;16.33;;;7.60;1.00;;;;;;4971690;28;20225;-86
2022/03/29 02:21:25;;;;;;;19.25;14.93;;;7.60;1.00;;;;;;4984087;23;20269;-86
2022/03/29 02:23:57;;;;;;;17.50;15.02;;;7.60;1.00;;;;;;4971048;28;20229;-85
2022/03/29 02:26:27;;;;;;;19.83;15.10;;;7.60;1.00;;;;;;4968733;28;20233;-84
2022/03/29 02:29:05;;;;;;;17.48;15.60;;;7.70;1.00;;;;;;4959011;28;20228;-84
2022/03/29 02:31:38;;;;;;;20.02;15.70;;;7.70;1.00;;;;;;4974281;28;20220;-85
2022/03/29 02:34:16;;;;;;;18.65;14.90;;;7.70;1.00;;;;;;4971870;28;20350;-85
2022/03/29 02:36:46;;;;;;;17.95;15.27;;;7.70;1.00;;;;;;4994395;28;20235;-85
2022/03/29 02:39:17;;;;;;;18.90;15.93;;;7.70;1.00;;;;;;5004526;28;20302;-85
2022/03/29 02:41:47;;;;;;;22.70;17.27;;;7.70;1.00;;;;;;4998446;28;20215;-85
2022/03/29 02:44:18;;;;;;;21.52;17.13;;;7.70;1.00;;;;;;4998680;28;20244;-84
2022/03/29 02:46:45;;;;;;;18.50;15.07;;;7.70;1.00;;;;;;5005473;28;20227;-86
2022/03/29 02:49:15;;;;;;;22.67;16.50;;;7.70;1.00;;;;;;5004027;28;20307;-85
2022/03/29 02:51:56;;;;;;;24.67;16.77;;;7.70;1.00;;;;;;5004878;23;20478;-86
2022/03/29 02:54:26;;;;;;;19.13;16.60;;;7.70;1.00;;;;;;4982598;28;20291;-86
2022/03/29 02:56:56;;;;;;;21.40;16.55;;;7.70;1.00;;;;;;4983667;28;20399;-84
2022/03/29 02:59:28;;;;;;;19.73;16.15;;;7.80;1.00;;;;;;4981835;28;20300;-85
2022/03/29 03:02:18;;;;;;;20.75;16.30;;;7.80;1.00;;;;;;4971339;23;20232;-92
2022/03/29 03:05:05;;;;;;;19.30;15.55;;;7.80;1.00;;;;;;4921541;28;20302;-93
2022/03/29 03:07:32;;;;;;;23.55;17.08;;;7.90;1.00;;;;;;4977988;28;20259;-93
2022/03/29 03:10:25;;;;;;;20.40;17.60;;;7.90;1.00;;;;;;4974302;28;20826;-92
2022/03/29 03:19:08;;;;;;;21.65;16.83;;;8.00;1.00;;;;;;4983128;23;20303;-84
2022/03/29 03:21:46;;;;;;;21.88;18.05;;;8.00;1.00;;;;;;4944142;28;20251;-85
2022/03/29 03:24:25;;;;;;;21.48;16.98;;;8.00;1.00;;;;;;4957930;28;20380;-87
2022/03/29 03:27:06;;;;;;;20.60;17.23;;;8.00;1.00;;;;;;4956698;28;20253;-84
2022/03/29 03:32:14;;;;;;;22.33;17.85;;;7.90;1.00;;;;;;4957328;23;39460;-83
2022/03/29 03:35:06;;;;;;;23.25;17.52;;;7.80;1.00;;;;;;4919580;28;20246;-84
2022/03/29 03:37:36;;;;;;;24.55;18.13;;;7.90;1.00;;;;;;4907367;29;20248;-84
2022/03/29 03:40:18;;;;;;;24.53;16.23;;;8.00;1.00;;;;;;4945549;23;20248;-85
2022/03/29 03:42:47;;;;;;;25.45;20.80;;;7.90;1.00;;;;;;4931744;28;20485;-85
2022/03/29 03:45:17;;;;;;;23.60;18.77;;;7.80;1.00;;;;;;4953918;28;20259;-86
2022/03/29 03:47:46;;;;;;;25.95;19.20;;;7.80;1.00;;;;;;4952846;28;20231;-85
2022/03/29 03:50:16;;;;;;;27.98;19.00;;;7.80;1.00;;;;;;4944047;28;20247;-85
2022/03/29 03:52:46;;;;;;;24.33;19.42;;;7.90;1.00;;;;;;4955223;28;20249;-85
2022/03/29 03:55:18;;;;;;;21.77;16.83;;;7.90;1.00;;;;;;4954513;28;20234;-84
2022/03/29 03:57:47;;;;;;;22.75;16.40;;;7.90;1.00;;;;;;4941390;28;20233;-84
2022/03/29 04:00:17;;;;;;;28.95;18.02;;;7.90;1.00;;;;;;4958832;23;20251;-85
2022/03/29 04:02:45;;;;;;;20.77;17.60;;;7.90;1.00;;;;;;4924235;28;20251;-84
2022/03/29 04:05:18;;;;;;;21.77;17.60;;;7.90;1.00;;;;;;4980298;28;20242;-86
2022/03/29 04:07:47;;;;;;;22.00;18.00;;;7.80;1.00;;;;;;4975724;28;20444;-86
2022/03/29 04:10:20;;;;;;;27.23;19.53;;;7.80;1.00;;;;;;4974390;28;20234;-84
2022/03/29 04:12:50;;;;;;;25.85;19.25;;;7.70;1.00;;;;;;4995091;28;20544;-87
2022/03/29 04:15:17;;;;;;;28.77;20.20;;;7.60;1.00;;;;;;4995009;28;20251;-86
2022/03/29 04:17:47;;;;;;;27.58;18.67;;;7.60;1.00;;;;;;4990309;28;20244;-84
2022/03/29 04:20:17;;;;;;;27.63;20.95;;;7.60;1.00;;;;;;4996759;23;20223;-77
2022/03/29 04:22:45;;;;;;;22.75;19.63;;;7.60;1.00;;;;;;4993837;28;20219;-79
2022/03/29 04:25:18;;;;;;;30.75;24.17;;;7.60;1.00;;;;;;4993324;28;20247;-77
2022/03/29 04:27:45;;;;;;;27.05;21.65;;;7.60;1.00;;;;;;4992508;28;20307;-77
2022/03/29 04:30:16;;;;;;;25.05;20.27;;;7.60;1.00;;;;;;5004744;23;20229;-79
2022/03/29 04:32:45;;;;;;;28.20;19.98;;;7.60;1.00;;;;;;4959894;28;20224;-78
2022/03/29 04:35:18;;;;;;;26.20;19.27;;;7.60;1.00;;;;;;4956029;28;20397;-78
2022/03/29 04:37:46;;;;;;;31.55;20.58;;;7.50;1.00;;;;;;4952306;28;20269;-78
2022/03/29 04:42:48;;;;;;;26.40;19.77;;;7.60;1.00;;;;;;4932470;28;21274;-77
2022/03/29 04:45:18;;;;;;;28.90;20.65;;;7.70;1.00;;;;;;4937959;28;20301;-76
2022/03/29 04:47:47;;;;;;;22.60;19.80;;;7.70;1.00;;;;;;4937406;28;20246;-76
2022/03/29 04:50:26;;;;;;;24.20;17.65;;;7.70;1.00;;;;;;4942538;28;20241;-75
2022/03/29 04:52:56;;;;;;;23.27;18.27;;;7.70;1.00;;;;;;4945123;28;20240;-77
2022/03/29 04:55:47;;;;;;;23.08;18.75;;;7.60;1.00;;;;;;4939464;28;20293;-74
2022/03/29 04:58:13;;;;;;;33.38;19.27;;;7.50;1.00;;;;;;4924847;28;20341;-75
2022/03/29 05:01:04;;;;;;;26.52;20.50;;;7.50;1.00;;;;;;4945210;28;20242;-76
2022/03/29 05:03:36;;;;;;;26.55;19.75;;;7.50;1.00;;;;;;4933780;28;20301;-76
2022/03/29 05:06:06;;;;;;;24.35;20.20;;;7.50;1.00;;;;;;4940700;28;20232;-75
2022/03/29 05:08:35;;;;;;;25.55;19.73;;;7.50;1.00;;;;;;4940559;28;20226;-77
2022/03/29 05:11:05;;;;;;;25.00;18.10;;;7.50;1.00;;;;;;4937589;28;20229;-76
2022/03/29 05:13:35;;;;;;;24.77;18.35;;;7.50;1.00;;;;;;4938898;28;20217;-75
2022/03/29 05:16:06;;;;;;;27.30;19.25;;;7.50;1.00;;;;;;4938448;28;20237;-75
2022/03/29 05:18:36;;;;;;;26.27;19.88;;;7.40;1.00;;;;;;4938952;28;20244;-76
2022/03/29 05:21:16;;;;;;;25.88;19.35;;;7.40;1.00;;;;;;4957055;23;20226;-75
2022/03/29 05:23:46;;;;;;;25.40;19.85;;;7.40;1.00;;;;;;4936807;28;20293;-76
2022/03/29 05:26:16;;;;;;;24.65;19.75;;;7.40;1.00;;;;;;4938344;28;20252;-78
2022/03/29 05:28:43;;;;;;;33.10;19.80;;;7.30;1.00;;;;;;4940973;28;20330;-76
2022/03/29 05:31:19;;;;;;;26.15;19.45;;;7.40;1.00;;;;;;4968960;23;20230;-77
2022/03/29 05:33:46;;;;;;;25.13;19.55;;;7.40;1.00;;;;;;4928973;28;20221;-77
2022/03/29 05:36:16;;;;;;;24.58;19.67;;;7.40;1.00;;;;;;4953175;28;20224;-75
2022/03/29 05:38:48;;;;;;;27.88;20.75;;;7.40;1.00;;;;;;4958669;28;21451;-78
2022/03/29 05:41:19;;;;;;;28.25;20.05;;;7.40;1.00;;;;;;4956192;28;20244;-74
2022/03/29 05:43:47;;;;;;;26.30;19.50;;;7.40;1.00;;;;;;4947165;28;20252;-77
2022/03/29 05:49:14;;;;;;;26.45;20.38;;;7.40;1.00;;;;;;4948211;28;20237;-75
2022/03/29 05:51:49;;;;;;;30.17;20.80;;;7.40;1.00;;;;;;4992125;23;20267;-75
2022/03/29 05:54:17;;;;;;;28.13;20.10;;;7.40;1.00;;;;;;4984641;28;20246;-76
2022/03/29 05:56:46;;;;;;;27.63;18.65;;;7.40;1.00;;;;;;4990060;28;20228;-74
2022/03/29 05:59:16;;;;;;;27.63;21.73;;;7.40;1.00;;;;;;4971781;28;20236;-75
2022/03/29 06:01:47;;;;;;;26.70;19.93;;;7.40;1.00;;;;;;4905710;23;1141119;-74
2022/03/29 06:04:22;;;;;;;27.98;20.13;;;7.40;1.00;;;;;;4975173;28;20224;-74
2022/03/29 06:06:58;;;;;;;29.73;20.77;;;7.40;1.00;;;;;;4961991;28;20405;-75
2022/03/29 06:09:29;;;;;;;33.80;22.02;;;7.40;1.00;;;;;;4966289;28;20244;-78
2022/03/29 06:11:57;;;;;;;32.55;23.20;;;7.40;1.00;;;;;;4956707;28;20327;-76
2022/03/29 06:14:28;;;;;;;30.20;23.35;;;7.40;1.00;;;;;;4950674;28;20228;-77
2022/03/29 06:17:10;;;;;;;27.13;20.85;;;7.40;1.00;;;;;;4962240;28;20229;-76
2022/03/29 06:22:06;;;;;;;34.63;22.33;;;7.40;1.00;;;;;;4976793;23;39546;-78
2022/03/29 06:27:27;;;;;;;30.90;21.67;;;7.80;1.00;;;;;;4985333;28;20318;-77
2022/03/29 06:29:58;;;;;;;33.35;21.65;;;8.00;1.00;;;;;;4982211;28;20215;-77
2022/03/29 06:32:46;;;;;;;29.90;22.65;;;8.00;1.00;;;;;;4937468;28;20253;-76
2022/03/29 06:35:21;;;;;;;30.83;20.63;;;7.90;1.00;;;;;;4956201;28;20213;-78
2022/03/29 06:38:03;;;;;;;29.55;20.65;;;7.80;1.00;;;;;;4947477;28;20236;-77
2022/03/29 06:40:38;;;;;;;33.20;22.65;;;7.80;1.00;;;;;;4948816;23;20617;-76
2022/03/29 06:43:08;;;;;;;30.27;21.10;;;7.80;1.00;;;;;;4947028;28;20285;-77
2022/03/29 06:45:35;;;;;;;29.23;21.25;;;7.90;1.00;;;;;;4932879;28;20233;-79
2022/03/29 06:48:07;;;;;;;33.03;21.60;;;8.00;1.00;;;;;;4923109;28;20241;-76
2022/03/29 06:50:58;;;;;;;27.67;19.63;;;8.10;1.00;;;;;;4941457;28;20298;-76
2022/03/29 06:53:29;;;;;;;29.45;19.48;;;8.10;1.00;;;;;;4936935;28;20284;-76
2022/03/29 06:55:56;;;;;;;30.55;19.30;;;8.10;1.00;;;;;;4940791;28;20258;-77
2022/03/29 06:58:28;;;;;;;25.80;21.02;;;8.20;1.00;;;;;;4936653;28;20245;-76
2022/03/29 07:00:57;;;;;;;26.15;20.65;;;8.20;1.00;;;;;;4922276;28;20238;-77
2022/03/29 07:03:29;;;;;;;33.87;21.33;;;8.30;1.00;;;;;;4936378;28;20241;-76
2022/03/29 07:05:59;;;;;;;30.15;21.38;;;8.30;1.00;;;;;;4938630;28;20529;-76
2022/03/29 07:08:26;;;;;;;28.33;19.40;;;8.40;1.00;;;;;;4933128;28;20245;-76
2022/03/29 07:13:48;;;;;;;27.45;16.98;;;8.50;1.00;;;;;;4936770;28;20222;-77
2022/03/29 07:16:18;;;;;;;27.48;19.23;;;8.50;1.00;;;;;;4923643;28;20242;-77
2022/03/29 07:18:50;;;;;;;28.10;18.23;;;8.70;1.00;;;;;;4935081;28;20242;-77
2022/03/29 07:21:19;;;;;;;24.50;18.00;;;8.70;1.00;;;;;;4920073;28;20252;-77
2022/03/29 07:23:47;;;;;;;25.20;18.00;;;8.70;1.00;;;;;;4929207;28;20316;-77
2022/03/29 07:26:17;;;;;;;26.00;17.55;;;8.70;1.00;;;;;;4932221;28;20437;-78
2022/03/29 07:28:47;;;;;;;27.80;17.75;;;8.70;1.00;;;;;;4933668;28;20248;-77
2022/03/29 07:31:27;;;;;;;23.73;16.30;;;8.80;1.00;;;;;;4930566;28;20233;-76
2022/03/29 07:34:19;;;;;;;;;;;;;;;;;;;;;
2022/03/29 07:36:56;;;;;;;24.35;17.67;;;9.10;1.00;;;;;;4930930;28;40730;-78
2022/03/29 07:39:28;;;;;;;26.60;17.80;;;9.10;1.00;;;;;;4933562;28;20419;-76
2022/03/29 07:41:58;;;;;;;23.77;17.30;;;9.40;1.00;;;;;;4933672;28;20507;-76
2022/03/29 07:44:29;;;;;;;21.33;16.93;;;9.60;1.00;;;;;;4935400;28;20242;-77
2022/03/29 07:46:57;;;;;;;22.03;15.70;;;9.50;1.00;;;;;;4936988;28;20554;-77
2022/03/29 07:49:48;;;;;;;22.90;16.80;;;9.40;1.00;;;;;;4935294;28;20445;-76
2022/03/29 07:52:30;;;;;;;24.90;16.77;;;9.30;1.00;;;;;;4886962;29;21509;-77
2022/03/29 07:54:58;;;;;;;23.20;15.40;;;9.30;1.00;;;;;;4892918;28;21159;-76
2022/03/29 07:57:29;;;;;;;25.13;15.90;;;9.40;1.00;;;;;;4938525;28;20430;-77
2022/03/29 08:00:00;;;;;;;23.30;15.60;;;9.50;1.00;;;;;;4949618;23;20437;-79
2022/03/29 08:02:31;;;;;;;25.52;17.15;;;9.60;1.00;;;;;;4946788;28;20430;-77
2022/03/29 08:05:09;;;;;;;18.60;15.00;;;9.70;1.00;;;;;;4958894;28;20345;-77
2022/03/29 08:07:37;;;;;;;22.77;14.93;;;9.90;1.00;;;;;;4945344;28;20460;-78
2022/03/29 08:10:10;;;;;;;20.80;14.47;;;9.90;1.00;;;;;;4951376;28;20465;-78
2022/03/29 08:12:39;;;;;;;21.70;14.90;;;9.80;1.00;;;;;;4938728;28;20461;-79
2022/03/29 08:15:07;;;;;;;18.10;14.27;;;9.70;1.00;;;;;;4920266;28;20433;-77
2022/03/29 08:17:40;;;;;;;19.50;13.77;;;9.80;1.00;;;;;;4944189;28;20466;-78
2022/03/29 08:20:17;;;;;;;16.33;13.10;;;10.00;1.00;;;;;;4942545;28;20465;-79
2022/03/29 08:23:00;;;;;;;15.77;11.93;;;10.20;1.00;;;;;;4958359;28;20464;-76
2022/03/29 08:25:32;;;;;;;16.60;12.80;;;10.20;1.00;;;;;;4929704;28;20512;-77
2022/03/29 08:28:00;;;;;;;16.43;13.40;;;10.00;1.00;;;;;;4946594;28;21048;-79
2022/03/29 08:30:31;;;;;;;18.17;13.83;;;9.90;1.00;;;;;;4945064;28;27184;-77
2022/03/29 08:33:10;;;;;;;19.10;13.20;;;9.90;1.00;;;;;;4939988;28;20422;-76
2022/03/29 08:35:38;;;;;;;16.40;13.33;;;10.10;1.00;;;;;;4948515;28;20240;-78
2022/03/29 08:38:10;;;;;;;22.17;13.90;;;10.50;1.00;;;;;;4955576;28;20450;-75
2022/03/29 08:40:48;;;;;;;20.67;14.87;;;10.90;1.00;;;;;;4951359;28;20462;-77
2022/03/29 08:43:19;;;;;;;17.63;14.23;;;11.20;1.00;;;;;;4949699;28;20422;-76
2022/03/29 08:45:49;;;;;;;20.27;13.40;;;11.40;1.00;;;;;;4949285;28;20440;-77
2022/03/29 08:48:29;;;;;;;17.40;13.00;;;11.30;1.00;;;;;;4951233;28;20514;-76
2022/03/29 08:50:59;;;;;;;16.40;13.70;;;11.20;1.00;;;;;;4916447;28;20588;-77
2022/03/29 08:53:38;;;;;;;17.10;13.57;;;11.10;1.00;;;;;;4958727;28;20500;-74
2022/03/29 08:56:28;;;;;;;18.63;12.70;;;11.10;1.00;;;;;;4934328;28;20627;-76
2022/03/29 08:58:58;;;;;;;17.07;12.60;;;11.10;1.00;;;;;;4911153;28;20452;-77
2022/03/29 09:01:31;;;;;;;16.00;12.57;;;11.10;1.00;;;;;;4939623;28;20465;-76
2022/03/29 09:04:40;;;;;;;20.80;13.47;;;11.30;1.00;;;;;;4951682;28;20432;-78
2022/03/29 09:07:20;;;;;;;19.53;13.20;;;11.60;1.00;;;;;;4947948;28;20429;-78
2022/03/29 09:09:47;;;;;;;19.23;14.00;;;11.70;1.00;;;;;;4949927;28;20583;-76
2022/03/29 09:12:22;;;;;;;20.23;12.80;;;11.80;1.00;;;;;;4940691;28;20472;-77
2022/03/29 09:14:58;;;;;;;16.43;11.90;;;11.80;1.00;;;;;;4950608;28;20427;-79
2022/03/29 09:17:41;;;;;;;15.73;12.03;;;11.80;1.00;;;;;;4952999;28;20514;-76
2022/03/29 09:20:21;;;;;;;16.60;13.30;;;12.00;1.00;;;;;;4920891;28;20610;-77
2022/03/29 09:23:18;;;;;;;20.13;13.60;;;12.30;1.00;;;;;;4932067;28;20452;-77
2022/03/29 09:25:50;;;;;;;18.37;14.00;;;12.90;1.00;;;;;;4936132;28;20512;-77
2022/03/29 09:28:21;;;;;;;15.27;13.20;;;14.40;1.00;;;;;;4944474;28;20422;-77
2022/03/29 09:30:52;;;;;;;18.23;13.43;;;16.00;1.00;;;;;;4953155;23;20552;-77
2022/03/29 09:33:30;;;;;;;15.30;12.00;;;17.20;1.00;;;;;;4940118;28;20604;-76
2022/03/29 09:38:59;;;;;;;17.97;14.27;;;18.20;1.00;;;;;;4936382;28;20476;-76
2022/03/29 09:41:28;;;;;;;17.90;14.20;;;18.80;1.00;;;;;;4977299;28;20456;-76
2022/03/29 09:44:02;;;;;;;14.67;13.03;;;19.40;1.00;;;;;;4986331;28;20407;-76
2022/03/29 09:46:32;;;;;;;15.53;12.90;;;19.30;1.00;;;;;;4996103;28;20472;-78
2022/03/29 09:49:01;;;;;;;15.80;14.13;;;19.70;1.00;;;;;;4993356;28;20431;-78
2022/03/29 09:51:30;;;;;;;16.10;14.10;;;20.20;1.00;;;;;;4971979;28;20847;-77
2022/03/29 09:54:03;;;;;;;18.17;15.07;;;20.00;1.00;;;;;;4981711;28;20455;-78
2022/03/29 09:56:33;;;;;;;19.50;15.67;;;18.60;1.00;;;;;;4989398;28;20502;-79
2022/03/29 09:59:14;;;;;;;15.63;13.20;;;18.60;1.00;;;;;;4985033;28;20536;-77
2022/03/29 10:01:53;;;;;;;17.00;15.20;;;19.70;1.00;;;;;;4989798;28;20491;-77
2022/03/29 10:04:39;;;;;;;17.20;15.50;;;20.20;1.00;;;;;;4978922;28;20455;-79
2022/03/29 10:07:11;;;;;;;17.87;14.27;;;20.80;1.00;;;;;;4991107;28;20464;-78
2022/03/29 10:12:22;;;;;;;15.80;14.10;;;19.00;1.00;;;;;;4954736;23;39500;-77
2022/03/29 10:18:00;;;;;;;17.80;13.30;;;19.00;1.00;;;;;;4933763;28;20802;-76
2022/03/29 10:20:31;;;;;;;15.83;13.80;;;19.90;1.00;;;;;;4959716;28;20421;-78
2022/03/29 10:23:11;;;;;;;18.13;13.30;;;20.60;1.00;;;;;;4962995;28;20440;-77
2022/03/29 10:25:52;;;;;;;15.10;12.57;;;20.50;1.00;;;;;;4960520;28;20470;-78
2022/03/29 10:28:20;;;;;;;17.13;15.17;;;21.50;1.00;;;;;;4945021;28;22192;-76
2022/03/29 10:30:46;;;;;;;12.40;11.17;;;22.70;1.00;;;;;;4954003;28;20443;-79
2022/03/29 10:33:29;;;;;;;30.90;14.47;;;22.90;1.00;;;;;;4968105;28;20420;-79
2022/03/29 10:36:20;;;;;;;16.53;13.60;;;22.10;1.00;;;;;;4961586;28;20432;-78
2022/03/29 10:39:02;;;;;;;16.90;12.47;;;22.30;1.00;;;;;;4936876;28;20443;-77
2022/03/29 10:41:59;;;;;;;16.37;13.17;;;23.10;1.00;;;;;;4968070;28;20792;-77
2022/03/29 10:45:00;;;;;;;16.03;13.43;;;22.90;1.00;;;;;;4970412;28;20447;-77
2022/03/29 10:47:42;;;;;;;16.93;12.87;;;22.70;1.00;;;;;;4977379;28;20484;-79
2022/03/29 10:50:11;;;;;;;13.57;12.17;;;22.70;1.00;;;;;;4966075;28;20454;-77
2022/03/29 10:52:42;;;;;;;13.83;11.80;;;23.40;1.00;;;;;;4973137;28;20464;-76
2022/03/29 10:55:28;;;;;;;14.40;12.40;;;23.70;1.00;;;;;;4973369;28;21226;-77
2022/03/29 10:58:08;;;;;;;14.50;12.37;;;23.60;1.00;;;;;;4965993;28;20452;-76
2022/03/29 11:00:42;;;;;;;14.70;12.87;;;23.80;1.00;;;;;;4956580;28;20437;-77
2022/03/29 11:03:21;;;;;;;15.47;13.93;;;24.00;1.00;;;;;;4951807;28;20447;-77
2022/03/29 11:06:17;;;;;;;15.73;13.10;;;24.50;1.00;;;;;;4967328;28;20525;-77
2022/03/29 11:08:48;;;;;;;15.67;12.97;;;23.80;1.00;;;;;;4969881;28;20577;-77
2022/03/29 11:11:41;;;;;;;17.93;14.07;;;23.50;1.00;;;;;;4972121;28;20436;-77
2022/03/29 11:14:50;;;;;;;14.70;12.77;;;22.40;1.00;;;;;;4938992;28;20448;-76
2022/03/29 11:20:32;;;;;;;14.50;13.03;;;24.50;1.00;;;;;;4965554;28;20520;-76
2022/03/29 11:23:01;;;;;;;13.40;12.07;;;24.60;1.00;;;;;;4943945;28;20504;-75
2022/03/29 11:25:41;;;;;;;14.00;12.63;;;24.20;1.00;;;;;;4962358;28;20412;-76
2022/03/29 11:28:19;;;;;;;12.70;11.33;;;24.60;1.00;;;;;;4952092;28;20504;-76
2022/03/29 11:30:55;;;;;;;11.47;9.23;;;26.00;1.00;;;;;;4956196;28;20427;-77
2022/03/29 11:33:31;;;;;;;12.30;10.97;;;25.40;1.00;;;;;;4947774;28;22002;-77
2022/03/29 11:36:11;;;;;;;10.80;9.40;;;23.90;1.00;;;;;;4948407;28;20575;-75
2022/03/29 11:38:44;;;;;;;12.63;10.40;;;23.70;1.00;;;;;;4953515;28;20487;-75
2022/03/29 11:41:32;;;;;;;12.60;11.50;;;23.80;1.00;;;;;;4937434;28;20449;-76
2022/03/29 11:44:23;;;;;;;12.23;9.50;;;24.60;1.00;;;;;;4949549;28;20441;-78
2022/03/29 11:47:00;;;;;;;10.53;9.30;;;25.80;1.00;;;;;;4942366;28;21155;-77
2022/03/29 11:49:41;;;;;;;9.83;8.67;;;26.60;1.00;;;;;;4969503;28;20422;-78
2022/03/29 11:52:33;;;;;;;9.97;8.97;;;26.40;1.00;;;;;;4961020;28;20467;-77
2022/03/29 11:55:22;;;;;;;10.00;7.87;;;26.10;1.00;;;;;;4961797;28;20416;-76
2022/03/29 11:57:49;;;;;;;8.40;7.60;;;26.10;1.00;;;;;;4961286;28;20472;-77
2022/03/29 12:00:34;;;;;;;9.03;7.90;;;25.20;1.00;;;;;;4968096;28;20478;-75
2022/03/29 12:03:03;;;;;;;9.73;7.80;;;24.80;1.00;;;;;;4969603;28;20487;-77
2022/03/29 12:05:33;;;;;;;7.67;5.90;;;25.70;1.00;;;;;;4940660;28;20421;-76
2022/03/29 12:08:03;;;;;;;7.53;5.50;;;26.10;1.00;;;;;;4946641;28;20419;-77
2022/03/29 12:10:31;;;;;;;12.17;6.47;;;25.90;1.00;;;;;;4958660;28;20464;-77
2022/03/29 12:12:58;;;;;;;14.47;12.63;;;25.40;1.00;;;;;;4954632;28;20990;-77
2022/03/29 12:15:31;;;;;;;9.57;6.23;;;25.70;1.00;;;;;;4937069;28;20476;-75
2022/03/29 12:20:53;;;;;;;8.80;5.40;;;26.30;1.00;;;;;;4959790;28;20456;-77
2022/03/29 12:23:32;;;;;;;9.23;5.70;;;26.50;1.00;;;;;;4971768;28;20547;-77
2022/03/29 12:26:01;;;;;;;8.10;6.07;;;26.60;1.00;;;;;;4969646;28;20475;-78
2022/03/29 12:28:42;;;;;;;6.87;5.23;;;27.30;1.00;;;;;;4985674;28;20463;-76
2022/03/29 12:31:11;;;;;;;6.13;4.50;;;28.10;1.00;;;;;;4932713;28;20504;-76
2022/03/29 12:33:52;;;;;;;6.30;4.50;;;28.10;1.00;;;;;;4963462;28;20460;-77
2022/03/29 12:36:24;;;;;;;7.10;4.97;;;28.00;1.00;;;;;;4960546;28;20594;-76
2022/03/29 12:38:53;;;;;;;5.50;4.93;;;28.40;1.00;;;;;;4954383;28;20475;-76
2022/03/29 12:41:42;;;;;;;10.63;5.80;;;28.70;1.00;;;;;;4973094;28;20495;-80
2022/03/29 12:44:11;;;;;;;5.63;4.43;;;27.90;1.00;;;;;;4958778;28;20500;-76
2022/03/29 12:49:44;;;;;;;4.77;3.63;;;28.10;1.00;;;;;;4969890;28;20662;-78
2022/03/29 12:52:13;;;;;;;6.13;3.73;;;27.80;1.00;;;;;;4950001;28;20441;-77
2022/03/29 12:54:51;;;;;;;9.20;5.37;;;27.20;1.00;;;;;;4957807;28;20499;-76
2022/03/29 12:57:20;;;;;;;5.13;3.60;;;27.00;1.00;;;;;;4971628;28;20428;-78
2022/03/29 12:59:47;;;;;;;10.27;4.70;;;27.40;1.00;;;;;;4968263;28;20476;-78
2022/03/29 13:02:17;;;;;;;5.80;4.20;;;28.00;1.00;;;;;;4959354;28;20439;-76
2022/03/29 13:05:09;;;;;;;6.30;4.30;;;28.20;1.00;;;;;;4968431;28;20453;-77
2022/03/29 13:07:44;;;;;;;5.97;4.10;;;27.40;1.00;;;;;;4978143;28;20432;-76
2022/03/29 13:10:40;;;;;;;8.00;4.10;;;26.00;1.00;;;;;;4954921;28;20491;-76
2022/03/29 13:13:18;;;;;;;6.07;4.20;;;24.30;1.00;;;;;;4971357;28;20430;-76
2022/03/29 13:16:05;;;;;;;6.07;4.70;;;23.40;1.00;;;;;;4971196;28;20460;-77
2022/03/29 13:18:40;;;;;;;10.77;6.23;;;24.10;1.00;;;;;;4949149;28;20503;-77
2022/03/29 13:21:23;;;;;;;7.77;5.90;;;24.60;1.00;;;;;;4961731;28;20435;-78
2022/03/29 13:23:54;;;;;;;9.13;5.70;;;24.20;1.00;;;;;;4971805;28;20427;-76
2022/03/29 13:26:29;;;;;;;8.30;6.63;;;25.30;1.00;;;;;;4961639;28;20431;-79
2022/03/29 13:29:13;;;;;;;7.00;5.23;;;24.90;1.00;;;;;;4978306;28;20451;-78
2022/03/29 13:31:44;;;;;;;8.97;6.10;;;24.50;1.00;;;;;;4941578;28;20492;-76
2022/03/29 13:34:14;;;;;;;8.23;6.10;;;24.20;1.00;;;;;;4955294;28;20466;-78
2022/03/29 13:36:44;;;;;;;8.30;6.20;;;23.70;1.00;;;;;;4965700;28;21290;-78
2022/03/29 13:39:15;;;;;;;7.30;6.07;;;22.70;1.00;;;;;;4940180;28;20427;-77
2022/03/29 13:41:43;;;;;;;11.33;6.17;;;20.90;1.00;;;;;;4964722;28;20479;-77
2022/03/29 13:44:12;;;;;;;8.57;6.10;;;19.50;1.00;;;;;;4958334;28;20432;-77
2022/03/29 13:46:50;;;;;;;7.93;5.63;;;18.30;1.00;;;;;;4955151;28;20483;-77
2022/03/29 13:49:25;;;;;;;10.10;6.10;;;17.80;1.00;;;;;;4954701;28;21762;-76
2022/03/29 13:51:53;;;;;;;7.20;4.87;;;17.40;1.00;;;;;;4944827;28;20479;-77
2022/03/29 13:54:33;;;;;;;7.77;5.67;;;16.90;1.00;;;;;;4959984;28;20622;-78
2022/03/29 13:57:03;;;;;;;7.97;5.17;;;16.40;1.00;;;;;;4958395;28;20452;-78
2022/03/29 13:59:33;;;;;;;8.93;4.90;;;15.90;1.00;;;;;;4953041;28;20600;-77
2022/03/29 14:02:07;;;;;;;8.17;4.37;;;15.60;1.00;;;;;;4955453;28;20444;-77
2022/03/29 14:04:43;;;;;;;10.70;4.80;;;15.40;1.00;;;;;;4961531;28;20460;-77
2022/03/29 14:07:11;;;;;;;7.23;4.30;;;15.20;1.00;;;;;;4943572;28;20502;-77
2022/03/29 14:09:43;;;;;;;5.07;4.10;;;15.10;1.00;;;;;;4948984;28;20437;-75